sensor_id;sensor_type;location;lat;lon;timestamp;P1;durP1;ratioP1;P2;durP2;ratioP2
6809;SDS011;3443;48.812;9.112;2024-01-30T00:01:10;4.03;;;3.63;;
6809;SDS011;3443;48.812;9.112;2024-01-30T00:03:36;4.77;;;4.30;;
6809;SDS011;3443;48.812;9.112;2024-01-30T00:06:02;4.17;;;3.77;;
6809;SDS011;3443;48.812;9.112;2024-01-30T00:08:28;4.03;;;3.70;;
6809;SDS011;3443;48.812;9.112;2024-01-30T00:10:54;4.10;;;3.80;;
6809;SDS011;3443;48.812;9.112;2024-01-30T00:13:20;4.10;;;3.53;;
6809;SDS011;3443;48.812;9.112;2024-01-30T00:15:45;4.37;;;3.40;;
6809;SDS011;3443;48.812;9.112;2024-01-30T00:18:11;3.90;;;3.50;;
6809;SDS011;3443;48.812;9.112;2024-01-30T00:20:37;4.57;;;3.83;;
6809;SDS011;3443;48.812;9.112;2024-01-30T00:23:03;4.10;;;3.80;;
6809;SDS011;3443;48.812;9.112;2024-01-30T00:25:28;4.47;;;3.97;;
6809;SDS011;3443;48.812;9.112;2024-01-30T00:27:54;3.53;;;3.23;;
6809;SDS011;3443;48.812;9.112;2024-01-30T00:30:20;3.70;;;3.50;;
6809;SDS011;3443;48.812;9.112;2024-01-30T00:32:45;3.87;;;3.57;;
6809;SDS011;3443;48.812;9.112;2024-01-30T00:35:11;3.53;;;3.33;;
6809;SDS011;3443;48.812;9.112;2024-01-30T00:37:36;3.50;;;3.20;;
6809;SDS011;3443;48.812;9.112;2024-01-30T00:40:02;3.40;;;3.20;;
6809;SDS011;3443;48.812;9.112;2024-01-30T00:42:28;3.20;;;3.00;;
6809;SDS011;3443;48.812;9.112;2024-01-30T00:44:54;3.37;;;3.03;;
6809;SDS011;3443;48.812;9.112;2024-01-30T00:47:19;3.53;;;3.23;;
6809;SDS011;3443;48.812;9.112;2024-01-30T00:49:45;3.87;;;3.30;;
6809;SDS011;3443;48.812;9.112;2024-01-30T00:52:11;3.20;;;3.00;;
6809;SDS011;3443;48.812;9.112;2024-01-30T00:54:37;3.80;;;3.47;;
6809;SDS011;3443;48.812;9.112;2024-01-30T00:57:02;3.10;;;2.90;;
6809;SDS011;3443;48.812;9.112;2024-01-30T00:59:28;3.63;;;2.97;;
6809;SDS011;3443;48.812;9.112;2024-01-30T01:01:54;3.63;;;3.40;;
6809;SDS011;3443;48.812;9.112;2024-01-30T01:04:19;3.30;;;3.10;;
6809;SDS011;3443;48.812;9.112;2024-01-30T01:06:46;3.77;;;3.47;;
6809;SDS011;3443;48.812;9.112;2024-01-30T01:09:12;3.50;;;3.20;;
6809;SDS011;3443;48.812;9.112;2024-01-30T01:11:38;3.13;;;2.70;;
6809;SDS011;3443;48.812;9.112;2024-01-30T01:14:04;3.57;;;3.00;;
6809;SDS011;3443;48.812;9.112;2024-01-30T01:16:30;3.13;;;2.93;;
6809;SDS011;3443;48.812;9.112;2024-01-30T01:18:55;3.20;;;3.00;;
6809;SDS011;3443;48.812;9.112;2024-01-30T01:21:21;4.00;;;3.00;;
6809;SDS011;3443;48.812;9.112;2024-01-30T01:23:46;3.60;;;3.40;;
6809;SDS011;3443;48.812;9.112;2024-01-30T01:26:12;3.10;;;2.90;;
6809;SDS011;3443;48.812;9.112;2024-01-30T01:28:40;3.43;;;3.13;;
6809;SDS011;3443;48.812;9.112;2024-01-30T01:31:06;3.40;;;3.17;;
6809;SDS011;3443;48.812;9.112;2024-01-30T01:33:32;3.63;;;3.33;;
6809;SDS011;3443;48.812;9.112;2024-01-30T01:35:58;3.10;;;3.00;;
6809;SDS011;3443;48.812;9.112;2024-01-30T01:38:24;3.90;;;3.00;;
6809;SDS011;3443;48.812;9.112;2024-01-30T01:40:50;3.40;;;3.20;;
6809;SDS011;3443;48.812;9.112;2024-01-30T01:43:16;3.40;;;3.20;;
6809;SDS011;3443;48.812;9.112;2024-01-30T01:45:41;3.43;;;3.23;;
6809;SDS011;3443;48.812;9.112;2024-01-30T01:48:07;3.90;;;3.60;;
6809;SDS011;3443;48.812;9.112;2024-01-30T01:50:34;3.57;;;3.27;;
6809;SDS011;3443;48.812;9.112;2024-01-30T01:53:01;3.97;;;2.80;;
6809;SDS011;3443;48.812;9.112;2024-01-30T01:55:27;2.87;;;2.77;;
6809;SDS011;3443;48.812;9.112;2024-01-30T01:57:55;3.33;;;3.13;;
6809;SDS011;3443;48.812;9.112;2024-01-30T02:00:21;3.53;;;3.23;;
6809;SDS011;3443;48.812;9.112;2024-01-30T02:02:47;3.40;;;3.13;;
6809;SDS011;3443;48.812;9.112;2024-01-30T02:05:13;3.03;;;2.83;;
6809;SDS011;3443;48.812;9.112;2024-01-30T02:07:40;3.23;;;3.03;;
6809;SDS011;3443;48.812;9.112;2024-01-30T02:10:07;3.30;;;3.10;;
6809;SDS011;3443;48.812;9.112;2024-01-30T02:12:34;3.40;;;3.20;;
6809;SDS011;3443;48.812;9.112;2024-01-30T02:14:59;3.23;;;3.03;;
6809;SDS011;3443;48.812;9.112;2024-01-30T02:17:25;3.03;;;2.90;;
6809;SDS011;3443;48.812;9.112;2024-01-30T02:19:51;3.37;;;3.17;;
6809;SDS011;3443;48.812;9.112;2024-01-30T02:22:17;3.17;;;2.93;;
6809;SDS011;3443;48.812;9.112;2024-01-30T02:24:44;3.30;;;3.10;;
6809;SDS011;3443;48.812;9.112;2024-01-30T02:27:09;3.20;;;2.90;;
6809;SDS011;3443;48.812;9.112;2024-01-30T02:29:35;3.33;;;3.10;;
6809;SDS011;3443;48.812;9.112;2024-01-30T02:32:01;3.37;;;3.17;;
6809;SDS011;3443;48.812;9.112;2024-01-30T02:34:27;3.27;;;3.07;;
6809;SDS011;3443;48.812;9.112;2024-01-30T02:36:52;3.30;;;3.03;;
6809;SDS011;3443;48.812;9.112;2024-01-30T02:39:18;3.77;;;3.40;;
6809;SDS011;3443;48.812;9.112;2024-01-30T02:41:43;3.63;;;3.30;;
6809;SDS011;3443;48.812;9.112;2024-01-30T02:44:09;3.60;;;3.30;;
6809;SDS011;3443;48.812;9.112;2024-01-30T02:46:34;3.47;;;3.27;;
6809;SDS011;3443;48.812;9.112;2024-01-30T02:49:00;3.63;;;3.37;;
6809;SDS011;3443;48.812;9.112;2024-01-30T02:51:25;3.27;;;3.07;;
6809;SDS011;3443;48.812;9.112;2024-01-30T02:53:51;3.50;;;3.20;;
6809;SDS011;3443;48.812;9.112;2024-01-30T02:56:17;3.57;;;3.30;;
6809;SDS011;3443;48.812;9.112;2024-01-30T02:58:43;3.77;;;3.57;;
6809;SDS011;3443;48.812;9.112;2024-01-30T03:01:08;3.20;;;3.03;;
6809;SDS011;3443;48.812;9.112;2024-01-30T03:03:34;3.30;;;3.10;;
6809;SDS011;3443;48.812;9.112;2024-01-30T03:06:01;2.93;;;2.83;;
6809;SDS011;3443;48.812;9.112;2024-01-30T03:08:27;3.30;;;3.10;;
6809;SDS011;3443;48.812;9.112;2024-01-30T03:10:52;3.30;;;3.10;;
6809;SDS011;3443;48.812;9.112;2024-01-30T03:13:18;3.60;;;3.37;;
6809;SDS011;3443;48.812;9.112;2024-01-30T03:15:44;2.90;;;2.80;;
6809;SDS011;3443;48.812;9.112;2024-01-30T03:18:09;3.00;;;2.90;;
6809;SDS011;3443;48.812;9.112;2024-01-30T03:20:35;3.73;;;3.10;;
6809;SDS011;3443;48.812;9.112;2024-01-30T03:23:00;3.30;;;3.03;;
6809;SDS011;3443;48.812;9.112;2024-01-30T03:25:26;2.93;;;2.73;;
6809;SDS011;3443;48.812;9.112;2024-01-30T03:27:52;3.17;;;2.87;;
6809;SDS011;3443;48.812;9.112;2024-01-30T03:30:17;2.70;;;2.50;;
6809;SDS011;3443;48.812;9.112;2024-01-30T03:32:43;2.93;;;2.83;;
6809;SDS011;3443;48.812;9.112;2024-01-30T03:35:09;2.90;;;2.80;;
6809;SDS011;3443;48.812;9.112;2024-01-30T03:37:35;2.90;;;2.80;;
6809;SDS011;3443;48.812;9.112;2024-01-30T03:40:01;3.47;;;3.20;;
6809;SDS011;3443;48.812;9.112;2024-01-30T03:42:27;3.47;;;3.27;;
6809;SDS011;3443;48.812;9.112;2024-01-30T03:44:53;3.03;;;2.83;;
6809;SDS011;3443;48.812;9.112;2024-01-30T03:47:20;2.67;;;2.57;;
6809;SDS011;3443;48.812;9.112;2024-01-30T03:49:45;4.00;;;3.70;;
6809;SDS011;3443;48.812;9.112;2024-01-30T03:52:11;3.90;;;3.60;;
6809;SDS011;3443;48.812;9.112;2024-01-30T03:54:37;3.40;;;3.20;;
6809;SDS011;3443;48.812;9.112;2024-01-30T03:57:03;3.67;;;3.40;;
6809;SDS011;3443;48.812;9.112;2024-01-30T03:59:28;3.70;;;3.40;;
6809;SDS011;3443;48.812;9.112;2024-01-30T04:01:54;3.47;;;3.27;;
6809;SDS011;3443;48.812;9.112;2024-01-30T04:04:20;3.67;;;3.37;;
6809;SDS011;3443;48.812;9.112;2024-01-30T04:06:45;3.73;;;3.43;;
6809;SDS011;3443;48.812;9.112;2024-01-30T04:09:14;3.30;;;3.10;;
6809;SDS011;3443;48.812;9.112;2024-01-30T04:11:40;3.80;;;3.50;;
6809;SDS011;3443;48.812;9.112;2024-01-30T04:14:07;3.20;;;3.00;;
6809;SDS011;3443;48.812;9.112;2024-01-30T04:16:33;3.87;;;3.60;;
6809;SDS011;3443;48.812;9.112;2024-01-30T04:18:58;3.63;;;3.33;;
6809;SDS011;3443;48.812;9.112;2024-01-30T04:21:24;3.63;;;3.43;;
6809;SDS011;3443;48.812;9.112;2024-01-30T04:23:50;3.53;;;3.33;;
6809;SDS011;3443;48.812;9.112;2024-01-30T04:26:16;3.43;;;3.23;;
6809;SDS011;3443;48.812;9.112;2024-01-30T04:28:42;4.00;;;3.50;;
6809;SDS011;3443;48.812;9.112;2024-01-30T04:31:09;3.43;;;3.23;;
6809;SDS011;3443;48.812;9.112;2024-01-30T04:33:34;3.77;;;3.50;;
6809;SDS011;3443;48.812;9.112;2024-01-30T04:36:00;4.00;;;3.37;;
6809;SDS011;3443;48.812;9.112;2024-01-30T04:38:26;3.00;;;2.80;;
6809;SDS011;3443;48.812;9.112;2024-01-30T04:40:51;3.03;;;2.93;;
6809;SDS011;3443;48.812;9.112;2024-01-30T04:43:17;3.40;;;3.20;;
6809;SDS011;3443;48.812;9.112;2024-01-30T04:45:44;3.10;;;2.90;;
6809;SDS011;3443;48.812;9.112;2024-01-30T04:48:09;3.33;;;3.13;;
6809;SDS011;3443;48.812;9.112;2024-01-30T04:50:35;2.70;;;2.60;;
6809;SDS011;3443;48.812;9.112;2024-01-30T04:53:01;3.23;;;2.70;;
6809;SDS011;3443;48.812;9.112;2024-01-30T04:55:26;2.83;;;2.73;;
6809;SDS011;3443;48.812;9.112;2024-01-30T04:57:52;3.13;;;2.93;;
6809;SDS011;3443;48.812;9.112;2024-01-30T05:00:18;2.57;;;2.47;;
6809;SDS011;3443;48.812;9.112;2024-01-30T05:02:43;3.17;;;2.97;;
6809;SDS011;3443;48.812;9.112;2024-01-30T05:05:09;3.00;;;2.77;;
6809;SDS011;3443;48.812;9.112;2024-01-30T05:07:36;2.80;;;2.60;;
6809;SDS011;3443;48.812;9.112;2024-01-30T05:10:02;2.73;;;2.63;;
6809;SDS011;3443;48.812;9.112;2024-01-30T05:12:28;2.97;;;2.77;;
6809;SDS011;3443;48.812;9.112;2024-01-30T05:14:54;3.13;;;2.93;;
6809;SDS011;3443;48.812;9.112;2024-01-30T05:17:19;2.90;;;2.70;;
6809;SDS011;3443;48.812;9.112;2024-01-30T05:19:45;3.37;;;3.07;;
6809;SDS011;3443;48.812;9.112;2024-01-30T05:22:10;2.83;;;2.73;;
6809;SDS011;3443;48.812;9.112;2024-01-30T05:24:40;3.00;;;2.90;;
6809;SDS011;3443;48.812;9.112;2024-01-30T05:27:07;2.90;;;2.77;;
6809;SDS011;3443;48.812;9.112;2024-01-30T05:29:33;2.67;;;2.47;;
6809;SDS011;3443;48.812;9.112;2024-01-30T05:31:58;2.80;;;2.70;;
6809;SDS011;3443;48.812;9.112;2024-01-30T05:34:24;3.50;;;3.27;;
6809;SDS011;3443;48.812;9.112;2024-01-30T05:36:49;2.90;;;2.80;;
6809;SDS011;3443;48.812;9.112;2024-01-30T05:39:15;3.50;;;3.10;;
6809;SDS011;3443;48.812;9.112;2024-01-30T05:41:40;3.10;;;2.80;;
6809;SDS011;3443;48.812;9.112;2024-01-30T05:44:06;3.00;;;2.87;;
6809;SDS011;3443;48.812;9.112;2024-01-30T05:46:31;3.03;;;2.73;;
6809;SDS011;3443;48.812;9.112;2024-01-30T05:48:58;3.60;;;3.40;;
6809;SDS011;3443;48.812;9.112;2024-01-30T05:51:23;3.30;;;3.10;;
6809;SDS011;3443;48.812;9.112;2024-01-30T05:53:49;3.07;;;2.97;;
6809;SDS011;3443;48.812;9.112;2024-01-30T05:56:15;4.63;;;3.43;;
6809;SDS011;3443;48.812;9.112;2024-01-30T05:58:40;2.87;;;2.67;;
6809;SDS011;3443;48.812;9.112;2024-01-30T06:01:08;3.47;;;3.27;;
6809;SDS011;3443;48.812;9.112;2024-01-30T06:03:33;3.07;;;2.87;;
6809;SDS011;3443;48.812;9.112;2024-01-30T06:05:59;3.00;;;2.80;;
6809;SDS011;3443;48.812;9.112;2024-01-30T06:08:25;3.77;;;3.23;;
6809;SDS011;3443;48.812;9.112;2024-01-30T06:10:50;3.43;;;3.23;;
6809;SDS011;3443;48.812;9.112;2024-01-30T06:13:16;3.80;;;3.50;;
6809;SDS011;3443;48.812;9.112;2024-01-30T06:15:42;3.00;;;2.80;;
6809;SDS011;3443;48.812;9.112;2024-01-30T06:18:07;3.17;;;2.97;;
6809;SDS011;3443;48.812;9.112;2024-01-30T06:20:33;3.80;;;3.50;;
6809;SDS011;3443;48.812;9.112;2024-01-30T06:22:59;3.50;;;3.20;;
6809;SDS011;3443;48.812;9.112;2024-01-30T06:25:25;3.60;;;3.40;;
6809;SDS011;3443;48.812;9.112;2024-01-30T06:27:50;3.37;;;3.07;;
6809;SDS011;3443;48.812;9.112;2024-01-30T06:30:17;3.27;;;2.90;;
6809;SDS011;3443;48.812;9.112;2024-01-30T06:32:43;3.30;;;3.20;;
6809;SDS011;3443;48.812;9.112;2024-01-30T06:35:09;3.47;;;3.27;;
6809;SDS011;3443;48.812;9.112;2024-01-30T06:37:35;3.60;;;3.30;;
6809;SDS011;3443;48.812;9.112;2024-01-30T06:40:01;3.50;;;3.30;;
6809;SDS011;3443;48.812;9.112;2024-01-30T06:42:27;4.10;;;3.83;;
6809;SDS011;3443;48.812;9.112;2024-01-30T06:44:53;4.40;;;4.10;;
6809;SDS011;3443;48.812;9.112;2024-01-30T06:47:18;4.00;;;3.67;;
6809;SDS011;3443;48.812;9.112;2024-01-30T06:49:44;4.73;;;4.30;;
6809;SDS011;3443;48.812;9.112;2024-01-30T06:52:10;4.17;;;3.93;;
6809;SDS011;3443;48.812;9.112;2024-01-30T06:54:36;4.60;;;4.10;;
6809;SDS011;3443;48.812;9.112;2024-01-30T06:57:01;4.63;;;4.07;;
6809;SDS011;3443;48.812;9.112;2024-01-30T06:59:27;4.97;;;3.97;;
6809;SDS011;3443;48.812;9.112;2024-01-30T07:01:53;4.10;;;3.80;;
6809;SDS011;3443;48.812;9.112;2024-01-30T07:04:19;4.83;;;4.50;;
6809;SDS011;3443;48.812;9.112;2024-01-30T07:06:44;5.20;;;4.70;;
6809;SDS011;3443;48.812;9.112;2024-01-30T07:09:10;3.97;;;3.77;;
6809;SDS011;3443;48.812;9.112;2024-01-30T07:11:35;5.73;;;4.53;;
6809;SDS011;3443;48.812;9.112;2024-01-30T07:14:01;5.23;;;4.27;;
6809;SDS011;3443;48.812;9.112;2024-01-30T07:16:29;4.50;;;4.10;;
6809;SDS011;3443;48.812;9.112;2024-01-30T07:18:55;4.60;;;4.30;;
6809;SDS011;3443;48.812;9.112;2024-01-30T07:21:21;4.30;;;4.00;;
6809;SDS011;3443;48.812;9.112;2024-01-30T07:23:52;4.27;;;3.93;;
6809;SDS011;3443;48.812;9.112;2024-01-30T07:26:18;5.80;;;4.67;;
6809;SDS011;3443;48.812;9.112;2024-01-30T07:28:44;4.70;;;4.33;;
6809;SDS011;3443;48.812;9.112;2024-01-30T07:31:09;4.63;;;4.23;;
6809;SDS011;3443;48.812;9.112;2024-01-30T07:33:35;4.53;;;4.23;;
6809;SDS011;3443;48.812;9.112;2024-01-30T07:36:01;4.70;;;4.30;;
6809;SDS011;3443;48.812;9.112;2024-01-30T07:38:26;4.67;;;4.27;;
6809;SDS011;3443;48.812;9.112;2024-01-30T07:40:52;5.13;;;4.73;;
6809;SDS011;3443;48.812;9.112;2024-01-30T07:43:17;7.40;;;5.70;;
6809;SDS011;3443;48.812;9.112;2024-01-30T07:45:45;5.83;;;5.23;;
6809;SDS011;3443;48.812;9.112;2024-01-30T07:48:10;5.77;;;5.33;;
6809;SDS011;3443;48.812;9.112;2024-01-30T07:50:36;6.70;;;5.57;;
6809;SDS011;3443;48.812;9.112;2024-01-30T07:53:01;8.33;;;5.83;;
6809;SDS011;3443;48.812;9.112;2024-01-30T07:55:27;7.17;;;6.17;;
6809;SDS011;3443;48.812;9.112;2024-01-30T07:57:54;6.00;;;5.50;;
6809;SDS011;3443;48.812;9.112;2024-01-30T08:00:20;6.13;;;5.53;;
6809;SDS011;3443;48.812;9.112;2024-01-30T08:02:46;6.03;;;5.43;;
6809;SDS011;3443;48.812;9.112;2024-01-30T08:05:12;5.93;;;5.43;;
6809;SDS011;3443;48.812;9.112;2024-01-30T08:07:40;6.20;;;5.60;;
6809;SDS011;3443;48.812;9.112;2024-01-30T08:10:07;7.17;;;6.47;;
6809;SDS011;3443;48.812;9.112;2024-01-30T08:12:33;7.73;;;7.03;;
6809;SDS011;3443;48.812;9.112;2024-01-30T08:14:58;8.00;;;6.80;;
6809;SDS011;3443;48.812;9.112;2024-01-30T08:17:24;7.97;;;7.17;;
6809;SDS011;3443;48.812;9.112;2024-01-30T08:19:49;10.67;;;7.10;;
6809;SDS011;3443;48.812;9.112;2024-01-30T08:22:15;8.43;;;7.00;;
6809;SDS011;3443;48.812;9.112;2024-01-30T08:24:41;8.40;;;7.13;;
6809;SDS011;3443;48.812;9.112;2024-01-30T08:27:06;9.83;;;8.13;;
6809;SDS011;3443;48.812;9.112;2024-01-30T08:29:34;7.83;;;6.20;;
6809;SDS011;3443;48.812;9.112;2024-01-30T08:32:00;8.30;;;7.20;;
6809;SDS011;3443;48.812;9.112;2024-01-30T08:34:26;6.13;;;5.53;;
6809;SDS011;3443;48.812;9.112;2024-01-30T08:36:52;8.97;;;6.50;;
6809;SDS011;3443;48.812;9.112;2024-01-30T08:39:18;7.83;;;6.30;;
6809;SDS011;3443;48.812;9.112;2024-01-30T08:41:43;52.85;;;23.23;;
6809;SDS011;3443;48.812;9.112;2024-01-30T08:44:09;38.17;;;15.20;;
6809;SDS011;3443;48.812;9.112;2024-01-30T08:46:36;41.07;;;18.13;;
6809;SDS011;3443;48.812;9.112;2024-01-30T08:49:01;47.20;;;19.05;;
6809;SDS011;3443;48.812;9.112;2024-01-30T08:51:29;20.63;;;11.90;;
6809;SDS011;3443;48.812;9.112;2024-01-30T08:53:54;10.02;;;7.45;;
6809;SDS011;3443;48.812;9.112;2024-01-30T08:56:20;10.10;;;7.10;;
6809;SDS011;3443;48.812;9.112;2024-01-30T08:58:46;13.80;;;8.27;;
6809;SDS011;3443;48.812;9.112;2024-01-30T09:01:11;18.52;;;11.13;;
6809;SDS011;3443;48.812;9.112;2024-01-30T09:03:37;24.38;;;10.95;;
6809;SDS011;3443;48.812;9.112;2024-01-30T09:06:10;23.20;;;11.10;;
6809;SDS011;3443;48.812;9.112;2024-01-30T09:08:36;19.13;;;10.00;;
6809;SDS011;3443;48.812;9.112;2024-01-30T09:11:08;11.38;;;8.00;;
6809;SDS011;3443;48.812;9.112;2024-01-30T09:13:34;9.07;;;7.25;;
6809;SDS011;3443;48.812;9.112;2024-01-30T09:16:00;9.00;;;6.63;;
6809;SDS011;3443;48.812;9.112;2024-01-30T09:18:26;10.27;;;7.53;;
6809;SDS011;3443;48.812;9.112;2024-01-30T09:20:51;10.25;;;6.93;;
6809;SDS011;3443;48.812;9.112;2024-01-30T09:23:17;7.70;;;6.95;;
6809;SDS011;3443;48.812;9.112;2024-01-30T09:25:44;10.45;;;7.10;;
6809;SDS011;3443;48.812;9.112;2024-01-30T09:28:10;10.70;;;8.35;;
6809;SDS011;3443;48.812;9.112;2024-01-30T09:30:36;10.70;;;7.07;;
6809;SDS011;3443;48.812;9.112;2024-01-30T09:33:01;9.52;;;6.68;;
6809;SDS011;3443;48.812;9.112;2024-01-30T09:35:27;9.57;;;6.38;;
6809;SDS011;3443;48.812;9.112;2024-01-30T09:37:54;9.60;;;6.85;;
6809;SDS011;3443;48.812;9.112;2024-01-30T09:40:19;8.20;;;6.50;;
6809;SDS011;3443;48.812;9.112;2024-01-30T09:42:46;8.10;;;6.30;;
6809;SDS011;3443;48.812;9.112;2024-01-30T09:45:15;7.20;;;5.90;;
6809;SDS011;3443;48.812;9.112;2024-01-30T09:47:43;8.57;;;5.97;;
6809;SDS011;3443;48.812;9.112;2024-01-30T09:50:10;7.07;;;5.90;;
6809;SDS011;3443;48.812;9.112;2024-01-30T09:52:37;6.18;;;5.57;;
6809;SDS011;3443;48.812;9.112;2024-01-30T09:55:04;6.78;;;6.00;;
6809;SDS011;3443;48.812;9.112;2024-01-30T09:57:30;6.93;;;6.00;;
6809;SDS011;3443;48.812;9.112;2024-01-30T09:59:56;9.80;;;5.85;;
6809;SDS011;3443;48.812;9.112;2024-01-30T10:02:22;7.00;;;6.30;;
6809;SDS011;3443;48.812;9.112;2024-01-30T10:04:48;6.90;;;6.18;;
6809;SDS011;3443;48.812;9.112;2024-01-30T10:07:15;6.28;;;5.70;;
6809;SDS011;3443;48.812;9.112;2024-01-30T10:09:41;6.72;;;5.90;;
6809;SDS011;3443;48.812;9.112;2024-01-30T10:12:07;9.00;;;6.40;;
6809;SDS011;3443;48.812;9.112;2024-01-30T10:14:33;8.02;;;5.88;;
6809;SDS011;3443;48.812;9.112;2024-01-30T10:17:03;8.55;;;6.45;;
6809;SDS011;3443;48.812;9.112;2024-01-30T10:19:29;6.95;;;5.85;;
6809;SDS011;3443;48.812;9.112;2024-01-30T10:21:54;7.55;;;6.32;;
6809;SDS011;3443;48.812;9.112;2024-01-30T10:24:23;8.45;;;6.57;;
6809;SDS011;3443;48.812;9.112;2024-01-30T10:26:49;9.02;;;6.38;;
6809;SDS011;3443;48.812;9.112;2024-01-30T10:29:15;6.72;;;6.05;;
6809;SDS011;3443;48.812;9.112;2024-01-30T10:31:41;9.35;;;6.80;;
6809;SDS011;3443;48.812;9.112;2024-01-30T10:34:07;6.85;;;6.13;;
6809;SDS011;3443;48.812;9.112;2024-01-30T10:36:33;7.93;;;6.00;;
6809;SDS011;3443;48.812;9.112;2024-01-30T10:39:13;6.93;;;5.82;;
6809;SDS011;3443;48.812;9.112;2024-01-30T10:41:43;6.10;;;5.50;;
6809;SDS011;3443;48.812;9.112;2024-01-30T10:44:10;9.70;;;5.88;;
6809;SDS011;3443;48.812;9.112;2024-01-30T10:46:37;8.13;;;5.70;;
6809;SDS011;3443;48.812;9.112;2024-01-30T10:49:04;8.68;;;5.57;;
6809;SDS011;3443;48.812;9.112;2024-01-30T10:51:31;7.07;;;5.55;;
6809;SDS011;3443;48.812;9.112;2024-01-30T10:53:57;8.57;;;5.72;;
6809;SDS011;3443;48.812;9.112;2024-01-30T10:56:23;9.55;;;6.00;;
6809;SDS011;3443;48.812;9.112;2024-01-30T10:58:50;9.90;;;6.18;;
6809;SDS011;3443;48.812;9.112;2024-01-30T11:01:17;6.20;;;5.65;;
6809;SDS011;3443;48.812;9.112;2024-01-30T11:03:52;9.32;;;6.60;;
6809;SDS011;3443;48.812;9.112;2024-01-30T11:06:22;8.27;;;6.78;;
6809;SDS011;3443;48.812;9.112;2024-01-30T11:09:00;7.68;;;6.30;;
6809;SDS011;3443;48.812;9.112;2024-01-30T11:11:47;9.13;;;6.03;;
6809;SDS011;3443;48.812;9.112;2024-01-30T11:14:37;7.45;;;6.03;;
6809;SDS011;3443;48.812;9.112;2024-01-30T11:17:05;9.65;;;6.35;;
6809;SDS011;3443;48.812;9.112;2024-01-30T11:19:31;11.13;;;6.97;;
6809;SDS011;3443;48.812;9.112;2024-01-30T11:21:57;8.45;;;6.22;;
6809;SDS011;3443;48.812;9.112;2024-01-30T11:24:23;10.73;;;6.57;;
6809;SDS011;3443;48.812;9.112;2024-01-30T11:26:49;14.73;;;7.18;;
6809;SDS011;3443;48.812;9.112;2024-01-30T11:29:20;11.95;;;6.65;;
6809;SDS011;3443;48.812;9.112;2024-01-30T11:31:53;18.50;;;7.55;;
6809;SDS011;3443;48.812;9.112;2024-01-30T11:34:22;11.57;;;6.88;;
6809;SDS011;3443;48.812;9.112;2024-01-30T11:36:51;11.95;;;6.68;;
6809;SDS011;3443;48.812;9.112;2024-01-30T11:39:23;14.20;;;7.55;;
6809;SDS011;3443;48.812;9.112;2024-01-30T11:41:50;12.18;;;7.03;;
6809;SDS011;3443;48.812;9.112;2024-01-30T11:44:17;9.35;;;6.93;;
6809;SDS011;3443;48.812;9.112;2024-01-30T11:46:45;10.32;;;6.82;;
6809;SDS011;3443;48.812;9.112;2024-01-30T11:49:11;13.75;;;7.43;;
6809;SDS011;3443;48.812;9.112;2024-01-30T11:51:37;15.18;;;7.97;;
6809;SDS011;3443;48.812;9.112;2024-01-30T11:54:03;13.45;;;7.53;;
6809;SDS011;3443;48.812;9.112;2024-01-30T11:56:28;12.18;;;6.55;;
6809;SDS011;3443;48.812;9.112;2024-01-30T11:58:54;9.27;;;6.88;;
6809;SDS011;3443;48.812;9.112;2024-01-30T12:01:20;11.60;;;6.85;;
6809;SDS011;3443;48.812;9.112;2024-01-30T12:03:49;12.48;;;7.00;;
6809;SDS011;3443;48.812;9.112;2024-01-30T12:06:15;8.50;;;6.60;;
6809;SDS011;3443;48.812;9.112;2024-01-30T12:08:41;9.75;;;7.05;;
6809;SDS011;3443;48.812;9.112;2024-01-30T12:11:07;11.32;;;6.55;;
6809;SDS011;3443;48.812;9.112;2024-01-30T12:13:33;12.25;;;8.25;;
6809;SDS011;3443;48.812;9.112;2024-01-30T12:15:59;14.52;;;8.10;;
6809;SDS011;3443;48.812;9.112;2024-01-30T12:18:26;11.05;;;8.15;;
6809;SDS011;3443;48.812;9.112;2024-01-30T12:20:58;10.38;;;7.30;;
6809;SDS011;3443;48.812;9.112;2024-01-30T12:23:24;7.75;;;6.45;;
6809;SDS011;3443;48.812;9.112;2024-01-30T12:25:51;6.10;;;5.60;;
6809;SDS011;3443;48.812;9.112;2024-01-30T12:30:48;6.57;;;5.43;;
6809;SDS011;3443;48.812;9.112;2024-01-30T12:33:16;5.70;;;4.97;;
6809;SDS011;3443;48.812;9.112;2024-01-30T12:35:46;8.02;;;5.20;;
6809;SDS011;3443;48.812;9.112;2024-01-30T12:38:13;6.95;;;4.57;;
6809;SDS011;3443;48.812;9.112;2024-01-30T12:40:39;5.78;;;4.68;;
6809;SDS011;3443;48.812;9.112;2024-01-30T12:43:05;7.20;;;5.20;;
6809;SDS011;3443;48.812;9.112;2024-01-30T12:45:30;7.22;;;5.47;;
6809;SDS011;3443;48.812;9.112;2024-01-30T12:47:56;8.25;;;5.28;;
6809;SDS011;3443;48.812;9.112;2024-01-30T12:50:23;7.35;;;5.97;;
6809;SDS011;3443;48.812;9.112;2024-01-30T12:52:48;9.27;;;6.10;;
6809;SDS011;3443;48.812;9.112;2024-01-30T12:55:14;10.73;;;5.85;;
6809;SDS011;3443;48.812;9.112;2024-01-30T12:57:40;5.15;;;4.60;;
6809;SDS011;3443;48.812;9.112;2024-01-30T13:00:06;6.05;;;5.38;;
6809;SDS011;3443;48.812;9.112;2024-01-30T13:02:35;9.00;;;5.07;;
6809;SDS011;3443;48.812;9.112;2024-01-30T13:05:03;8.75;;;5.22;;
6809;SDS011;3443;48.812;9.112;2024-01-30T13:07:29;11.20;;;5.40;;
6809;SDS011;3443;48.812;9.112;2024-01-30T13:09:55;7.90;;;5.28;;
6809;SDS011;3443;48.812;9.112;2024-01-30T13:12:27;9.27;;;4.90;;
6809;SDS011;3443;48.812;9.112;2024-01-30T13:14:53;5.07;;;4.03;;
6809;SDS011;3443;48.812;9.112;2024-01-30T13:17:19;5.95;;;4.03;;
6809;SDS011;3443;48.812;9.112;2024-01-30T13:19:44;7.65;;;4.97;;
6809;SDS011;3443;48.812;9.112;2024-01-30T13:22:10;6.63;;;4.28;;
6809;SDS011;3443;48.812;9.112;2024-01-30T13:24:35;5.20;;;4.65;;
6809;SDS011;3443;48.812;9.112;2024-01-30T13:27:01;7.55;;;4.80;;
6809;SDS011;3443;48.812;9.112;2024-01-30T13:29:27;5.88;;;4.97;;
6809;SDS011;3443;48.812;9.112;2024-01-30T13:31:52;7.72;;;5.07;;
6809;SDS011;3443;48.812;9.112;2024-01-30T13:34:18;6.47;;;4.40;;
6809;SDS011;3443;48.812;9.112;2024-01-30T13:36:46;9.10;;;4.68;;
6809;SDS011;3443;48.812;9.112;2024-01-30T13:39:13;6.78;;;4.32;;
6809;SDS011;3443;48.812;9.112;2024-01-30T13:41:39;6.30;;;4.30;;
6809;SDS011;3443;48.812;9.112;2024-01-30T13:44:06;9.98;;;4.60;;
6809;SDS011;3443;48.812;9.112;2024-01-30T13:46:32;7.28;;;4.60;;
6809;SDS011;3443;48.812;9.112;2024-01-30T13:48:57;6.07;;;4.00;;
6809;SDS011;3443;48.812;9.112;2024-01-30T13:51:23;5.03;;;4.60;;
6809;SDS011;3443;48.812;9.112;2024-01-30T13:53:49;8.18;;;5.38;;
6809;SDS011;3443;48.812;9.112;2024-01-30T13:56:15;7.75;;;6.18;;
6809;SDS011;3443;48.812;9.112;2024-01-30T13:58:41;11.52;;;7.13;;
6809;SDS011;3443;48.812;9.112;2024-01-30T14:01:06;11.63;;;7.53;;
6809;SDS011;3443;48.812;9.112;2024-01-30T14:03:32;9.80;;;7.65;;
6809;SDS011;3443;48.812;9.112;2024-01-30T14:05:58;11.77;;;7.95;;
6809;SDS011;3443;48.812;9.112;2024-01-30T14:08:24;11.75;;;8.13;;
6809;SDS011;3443;48.812;9.112;2024-01-30T14:10:52;14.93;;;8.13;;
6809;SDS011;3443;48.812;9.112;2024-01-30T14:13:19;12.07;;;7.80;;
6809;SDS011;3443;48.812;9.112;2024-01-30T14:15:45;11.80;;;7.78;;
6809;SDS011;3443;48.812;9.112;2024-01-30T14:18:10;16.23;;;7.90;;
6809;SDS011;3443;48.812;9.112;2024-01-30T14:20:36;12.60;;;7.85;;
6809;SDS011;3443;48.812;9.112;2024-01-30T14:23:02;11.27;;;7.57;;
6809;SDS011;3443;48.812;9.112;2024-01-30T14:25:27;12.40;;;7.72;;
6809;SDS011;3443;48.812;9.112;2024-01-30T14:27:53;13.95;;;7.72;;
6809;SDS011;3443;48.812;9.112;2024-01-30T14:30:19;10.77;;;8.15;;
6809;SDS011;3443;48.812;9.112;2024-01-30T14:32:44;12.05;;;7.60;;
6809;SDS011;3443;48.812;9.112;2024-01-30T14:35:10;11.07;;;7.57;;
6809;SDS011;3443;48.812;9.112;2024-01-30T14:37:37;12.05;;;6.85;;
6809;SDS011;3443;48.812;9.112;2024-01-30T14:40:02;9.68;;;6.95;;
6809;SDS011;3443;48.812;9.112;2024-01-30T14:42:28;9.30;;;6.78;;
6809;SDS011;3443;48.812;9.112;2024-01-30T14:44:56;9.88;;;6.78;;
6809;SDS011;3443;48.812;9.112;2024-01-30T14:47:22;9.05;;;6.90;;
6809;SDS011;3443;48.812;9.112;2024-01-30T14:49:48;11.38;;;6.38;;
6809;SDS011;3443;48.812;9.112;2024-01-30T14:52:14;10.35;;;6.70;;
6809;SDS011;3443;48.812;9.112;2024-01-30T14:54:40;8.93;;;6.93;;
6809;SDS011;3443;48.812;9.112;2024-01-30T14:57:05;9.80;;;7.15;;
6809;SDS011;3443;48.812;9.112;2024-01-30T14:59:31;10.32;;;7.05;;
6809;SDS011;3443;48.812;9.112;2024-01-30T15:01:56;14.10;;;6.88;;
6809;SDS011;3443;48.812;9.112;2024-01-30T15:04:22;11.50;;;7.70;;
6809;SDS011;3443;48.812;9.112;2024-01-30T15:06:48;7.60;;;6.75;;
6809;SDS011;3443;48.812;9.112;2024-01-30T15:09:14;9.40;;;6.40;;